SiktMolnbas
>≥ 10km≥ 10km ≥ 2000ft≥ 2000ft
< 10km< 10km < 2000ft< 2000ft
< 8km< 8km < 1500ft< 1500ft
< 5km< 5km < 1000ft< 1000ft
< 3km< 3km < 500ft< 500ft

Nytt 18 jan 2017:

Nytt 17 jan 2017:

ESNQ (17:20 UTC)

Kiruna flygplats

METAR

SN

ESNQ 241720Z AUTO 00000KT 9999 -SN OVC018/// M17/M19 Q0995=

TAF

ESNQ 241730Z 2418/2421NIL=

ESNG (17:20 UTC)

Gällivare (Kavaheden), Lapland Airport

METAR

ESNG 241720Z 15002KT 9999 OVC017 M17/M19 Q0997=

TAF

SN

ESNG 241730Z 2418/2421 30002KT 9999 OVC020 PROB40 2418/2421 4000 -SN BKN014=

ESPA (17:20 UTC)

Luleå Airport (Kallax)

METAR

ESPA 241720Z 35007KT 9999 OVC014 M12/M14 Q1000=

TAF

SN

ESPA 241730Z 2418/2423 35008KT 9999 -SN OVC015 TEMPO 2418/2423 BKN012=

ESNL (17:20 UTC)

Lycksele flygplats

METAR

SN

ESNL 241720Z AUTO 33002KT 6000 -SN FEW003/// SCT008/// BKN010/// M12/M13 Q0998=

TAF

Ingen TAF hittades.

ESNU (17:20 UTC)

Umeå City Airport

METAR

ESNU 241720Z 35007KT 9999 OVC007 M09/M10 Q0999 RESN RWY 14 ICE 11-25 PCT FCT 0.60=

TAF

SN

ESNU 241730Z 2418/2503 35007KT 9999 OVC005 PROB40 2418/2503 4000 -SN OVC010=

ESNO (17:20 UTC)

Örnsköldsvik flygplats

METAR

ESNO 241720Z 01003KT 340V040 9999 OVC007 M07/M08 Q0998=

TAF

SN

ESNO 241430Z 2415/2419 01005KT 7000 -SG OVC007 TEMPO 2415/2419 4000 -SN BKN010=

ESNK (17:20 UTC)

Kramfors-Sollefteå flygplats

METAR

ESNK 241720Z AUTO 29003KT 9999 OVC009/// M04/M05 Q0999=

TAF

Ingen TAF hittades.

ESNN (17:20 UTC)

Sundsvall-Härnösands flygplats (Midlanda)

METAR

ESNN 241720Z 12003KT 9999 OVC008 M02/M03 Q0999 RWY 16 ICE 26-50 PCT FCT 0.52=

TAF

ESNN 241430Z 2415/2418 VRB03KT 9999 OVC004 TEMPO 2415/2418 BKN008=

ESNZ (17:20 UTC)

Åre Östersund Airport (Frösön)

METAR

ESNZ 241720Z AUTO 00000KT 9999 FEW025/// M11/M11 Q0995=

TAF

ESNZ 241730Z 2418/2422 VRB02KT CAVOK PROB40 2420/2422 1400 BCFG=

ESNS (17:20 UTC)

Skellefteå flygplats

METAR

SN

ESNS 241720Z 34004KT 9999 -SN FEW007 OVC012 M11/M13 Q1000=

TAF

SN

ESNS 241430Z 2415/2418 35005KT 5000 -SN SCT006 OVC020 TEMPO 2415/2418 1400 SN BKN005=

ESGT (17:20 UTC)

Trollhättan-Vänersborgs flygplats (Malöga flygplats)

METAR

ESGT 241720Z AUTO 01002KT 7000 NCD M01/M01 Q0997=

TAF

Ingen TAF hittades.

ESGG (17:20 UTC)

Göteborg-Landvetter flygplats

METAR

ESGG 241720Z 12005KT 9999 BKN005 00/M01 Q0995 RWY 21 DAMP 51-100 PCT BA GOOD=

TAF

SN

ESGG 241730Z 2418/2518 14007KT 9999 SCT006 BKN040 TEMPO 2418/2424 BKN006 PROB40 2500/2508 2500 -SN BKN006=

ESMT (17:20 UTC)

Halmstads flygplats

METAR

ESMT 241720Z 11005KT 7000 OVC050 02/00 Q0996=

TAF

BR

ESMT 241713Z 2418/2420 14005KT 9999 BKN045 TEMPO 2418/2420 3000 BR BKN006=

ESTA (17:20 UTC)

Ängelholm-Helsingborg flygplats

METAR

BR

ESTA 241720Z 13003KT 3500 BR BKN051 02/01 Q0996=

TAF

BR

ESTA 241713Z 2418/2420 14005KT 9999 BKN045 TEMPO 2418/2420 3000 BR BKN006=

ESTL (17:20 UTC)

Ljungbyheds flygplats

METAR

BR

ESTL 241720Z AUTO 10004KT 3300 BR BKN004/// OVC050/// 01/01 Q0997=

TAF

Ingen TAF hittades.

ESMS (17:20 UTC)

Malmö Airport

METAR

ESMS 241720Z VRB03KT 5000 SCT035 02/01 Q0996 RWY 17 WET OR WATER PATCHES 51-100 PCT BA GOOD=

TAF

BR

ESMS 241716Z 2418/2518 VRB02KT 9000 BKN020 TEMPO 2418/2506 1200 BR BKN002 BECMG 2506/2508 0600 FZFG BKN002 TEMPO 2508/2518 6000 NSW BKN015=

ESMK (17:20 UTC)

Kristianstad Airport

METAR

FG

ESMK 241720Z AUTO 08003KT 0300 R01/1600N R19/1000N FG OVC001/// 00/00 Q0997=

TAF

Ingen TAF hittades.

ESDF (17:20 UTC)

Ronneby flygplats

METAR

ESDF 241720Z 35003KT 9999 BKN004 M01/M01 Q0997=

TAF

Ingen TAF hittades.

ESMQ (17:20 UTC)

Kalmar Airport

METAR

ESMQ 241720Z 35004KT 9999 OVC002 M00/M00 Q0997=

TAF

BR

ESMQ 241430Z 2415/2419 34005KT 9999 OVC002 PROB40 2415/2419 4000 BR FEW002 BKN040=

ESMX (17:20 UTC)

Växjö, Smaland Airport

METAR

BR

ESMX 241720Z AUTO 04004KT 7000 BR OVC002/// M01/M01 Q0996=

TAF

Ingen TAF hittades.

ESSA (17:20 UTC)

Stockholm-Arlanda flygplats

METAR

ESSA 241720Z 31004KT CAVOK M02/M03 Q0997 RWY 01R DAMP 51-100 PCT FCT 0.74 RWY 08 DAMP 51-100 PCT FCT 0.69 TEMPO BKN006=

TAF

SN

ESSA 241730Z 2418/2518 32003KT 9999 SCT020 PROB40 2418/2421 BKN012 PROB40 2421/2505 BKN008 BECMG 2505/2507 1400 SN VV008 TEMPO 2507/2518 5000 -SN OVC015 BECMG 2507/2510 33013KT BECMG 2516/2518 7000 -SN BKN020=

ESSB (17:20 UTC)

Stockholm-Bromma flygplats

METAR

FG

ESSB 241720Z 30003KT 9999 BCFG NSC M02/M02 Q0997 RWY 12 CLEAR AND DRY 51-100 PCT FCT 0.64=

TAF

ESSB 241730Z 2418/2422 VRB02KT 7000 NSC PROB40 2418/2422 0700 FZFG VV003=

ESKN (17:20 UTC)

Stockholm-Skavsta flygplats

METAR

ESKN 241720Z 34004KT 310V020 9999 SCT023 M00/M01 Q0997 RWY 26 DAMP 51-100 PCT BA GOOD=

TAF

SN

ESKN 241730Z 2418/2518 30005KT 9999 BKN020 PROB40 2418/2424 BKN012 PROB40 2500/2506 BKN007 BECMG 2506/2508 3000 -SN BKN008 TEMPO 2508/2516 1800 SN VV015 BECMG 2515/2517 8000 BKN020=

ESSL (17:20 UTC)

Linköping - SAAB Flygplats

METAR

FG

ESSL 241720Z AUTO 12002KT 0550 R11/P2000N R29/1600U BCFG BKN001/// M03/M03 Q0997=

TAF

ESSL AMD 241730Z 2417/2419 VRB02KT 5000 MIFG FEW002 TEMPO 2417/2419 0300 BCFG BKN002=

ESSV (17:20 UTC)

Visby flygplats

METAR

ESSV 241720Z 01011KT 9999 SCT013 BKN021 03/01 Q0996 RWY 03 DAMP 51-100 PCT FCT 0.85=

TAF

ESSV 241730Z 2418/2420 36010KT 9999 SCT011 BKN020 TEMPO 2418/2420 BKN011=

ESOW (17:20 UTC)

Stockholm-Västerås flygplats

METAR

BR

ESOW 241720Z AUTO VRB02KT 7000 BR OVC023/// M00/M01 Q0998=

TAF

Ingen TAF hittades.

ESOE (17:20 UTC)

Örebro flygplats

METAR

ESOE 241720Z AUTO VRB02KT 9999 OVC028/// M01/M02 Q0997=

TAF

Ingen TAF hittades.

ESOK (17:20 UTC)

Karlstad Airport

METAR

ESOK 241720Z AUTO 09003KT 9999 OVC022/// M01/M01 Q0997=

TAF

Ingen TAF hittades.

ESSD (17:20 UTC)

Borlänge, Dala Airport

METAR

ESSD 241720Z AUTO VRB02KT 9999 OVC022/// M00/M02 Q0997=

TAF

Ingen TAF hittades.

ESGR (17:20 UTC)

Skövde flygplats

METAR

ESGR 241720Z AUTO 00000KT 9999 OVC047/// M01/M02 Q0997=

TAF

Ingen TAF hittades.

ESIB (17:20 UTC)

Såtenäs

METAR

ESIB 241720Z AUTO 07003KT 9999 NCD M01/M01 Q0996=

TAF

Ingen TAF hittades.

ESNV (17:20 UTC)

Vilhelmina flygplats

METAR

ESNV 241720Z AUTO 31003KT 4000 SG BKN008/// OVC012/// M13/M15 Q0997=

TAF

Ingen TAF hittades.

ESST (17:20 UTC)

Torsby flygplats (Fryklanda)

METAR

BR

ESST 241720Z AUTO 00000KT 2000 BR FEW018/// OVC025/// M02/M02 Q0997=

TAF

Ingen TAF hittades.

ESUT (17:20 UTC)

Hemavans flygplats

METAR

SN

ESUT 241720Z AUTO 14008KT 9999 -SN BKN038/// OVC051/// M15/M18 Q0995=

TAF

Ingen TAF hittades.

ESNX (17:20 UTC)

Arvidsjaur flygplats

METAR

ESNX 241720Z 35001KT 9999 BKN015 M15/M16 Q0996=

TAF

SN

ESNX 241730Z 2418/2421 VRB02KT 5000 -SN OVC002 TEMPO 2418/2421 1200 SN VV015=

ESIA (17:20 UTC)

Karlsborg

METAR

BR

ESIA 241720Z AUTO VRB01KT 3800 BR SCT012/// M02/M03 Q0997=

TAF

Ingen TAF hittades.

ESUP (17:20 UTC)

Pajala

METAR

ESUP 241720Z 30003KT 9999 OVC037 M15/M17 Q0999=

TAF

Ingen TAF hittades.

ESPE (17:20 UTC)

Vidsel

METAR

SN

ESPE 241720Z AUTO 32003KT 0900 0800// R11/1900N R29/1900U SN FEW010/// SCT022/// OVC028/// M15/M16 Q0999=

TAF

Ingen TAF hittades.

ESCM (17:20 UTC)

Uppsala

METAR

ESCM 241720Z AUTO 33004KT 9999 OVC016/// M00/M01 Q0997=

TAF

Ingen TAF hittades.

ESKM (17:20 UTC)

Mora/Siljan

METAR

ESKM 241720Z AUTO 34009KT 9999 NCD M06/M06 Q0997=

TAF

Ingen TAF hittades.

EKRN (17:20 UTC)

Bornholm Airport

METAR

EKRN 241720Z AUTO 30003KT 8000 FEW013/// SCT023/// BKN035/// OVC073/// 02/02 Q0996=

TAF

BR

EKRN 241426Z 2415/2420 VRB02KT 9000 BKN040 TEMPO 2418/2420 4000 BR BKN008=

EFIV (17:20 UTC)

Ivalo Airport

METAR

SHSN

EFIV 241720Z AUTO 02002KT 9999 -SHSN NSC M16/M18 Q1000=

TAF

Ingen TAF hittades.

EFKT (17:20 UTC)

Kittilä Airport

METAR

SHSN

EFKT 241720Z 36003KT 9999 -SHSN BKN032 M14/M16 Q0998=

TAF

SN

EFKT 241423Z 2415/2419 01004KT 9999 -SN SCT040 TEMPO 2415/2419 4000=

EFRO (17:20 UTC)

Rovaniemi Airport

METAR

EFRO 241720Z AUTO VRB02KT 9999 OVC012 M11/M12 Q0998=

TAF

SN

EFRO AMD 241646Z 2416/2515 03004KT 9999 OVC015 TEMPO 2416/2508 BKN012 PROB40 2416/2508 5000 -SN BKN005=

EFKE (17:20 UTC)

Kemi-Tornio Airport

METAR

EFKE 241720Z AUTO 01005KT 9999 SCT017 BKN037 M10/M11 Q0999=

TAF

Ingen TAF hittades.

EFKS (17:20 UTC)

Kuusamo Airport

METAR

EFKS 241720Z AUTO 07004KT 9999 OVC001 M06/M07 Q0997=

TAF

FZDZ

EFKS 241423Z 2415/2422 11004KT 9999 -SN BKN003 TEMPO 2415/2418 2500 -FZDZ BKN005 TEMPO 2418/2422 2500 SCT004 BKN015=

EFOU (17:20 UTC)

Oulu Airport

METAR

EFOU 241720Z AUTO 33004KT 6000 OVC002 M05/M06 Q0998=

TAF

SN

EFOU 241423Z 2415/2515 31003KT 9999 BKN015 TEMPO 2415/2421 5000 -SN BKN004 TEMPO 2421/2506 BKN005 BECMG 2514/2515 4000 -SN=

EFKI (17:20 UTC)

Kajaani Airport

METAR

FZDZ

EFKI 241720Z AUTO 11005KT 8000 -FZDZSN OVC033 00/M00 Q0997 REFZRA=

TAF

Ingen TAF hittades.

EFKK (17:20 UTC)

Kokkola-Pietarsaari/Kruunupyy Airport

METAR

BR

EFKK 241720Z AUTO 36002KT 3300 BR OVC002 M01/M01 Q0998 REFZRA=

TAF

Ingen TAF hittades.

EFVA (17:20 UTC)

Vaasa Airport

METAR

EFVA 241720Z AUTO VRB01KT 9999 OVC025 00/00 Q0998=

TAF

SN

EFVA AMD 241556Z 2415/2515 12005KT 9999 OVC004 BECMG 2416/2418 BKN020 TEMPO 2500/2506 BKN009 BECMG 2506/2508 02013KT BKN008 BECMG 2509/2511 2000 SN TEMPO 2511/2515 3000 -SN BKN010=

EFKU (17:20 UTC)

Kuopio Airport

METAR

FG

EFKU 241720Z AUTO 13004KT 100V160 0900 R15/1800D FG VV002 00/00 Q0997=

TAF

SNBR

EFKU 241423Z 2415/2515 12006KT 8000 -SN BKN005 TEMPO 2415/2416 2000 BKN003 BECMG 2416/2418 3000 BR BKN003 TEMPO 2418/2512 1200 BECMG 2501/2503 SN VV006 TEMPO 2512/2515 8000 NSW=

EFJY (17:20 UTC)

Jyväskylä Airport

METAR

BR

EFJY 241720Z AUTO VRB01KT 4000 BR BKN002 OVC012 00/00 Q0996=

TAF

FZDZ

EFJY 241438Z 2415/2515 09005KT 5000 -SN OVC004 TEMPO 2415/2503 1200 -FZDZSN BKN001 BECMG 2503/2505 2000 SN OVC005 TEMPO 2505/2510 4000 -SN BKN004 BECMG 2510/2512 6000 -SN=

EFTP (17:20 UTC)

Tampere-Pirkkala Airport

METAR

EFTP 241720Z AUTO VRB02KT 9999 OVC008 00/M00 Q0996=

TAF

FZDZBR

EFTP 241437Z 2415/2515 04005KT 3000 -FZDZSN OVC001 BECMG 2415/2417 7000 NSW BKN004 TEMPO 2417/2501 4000 BR BKN005 BECMG 2501/2503 1500 SN BKN005 TEMPO 2503/2509 3000 -SN BKN004 BECMG 2509/2511 5000 NSW=

EFPO (17:20 UTC)

Pori Airport

METAR

EFPO 241720Z AUTO 01004KT 340V040 9999 OVC008 01/M00 Q0997=

TAF

Ingen TAF hittades.

EFTU (17:20 UTC)

Turku Airport

METAR

EFTU 241720Z AUTO VRB05KT 9999 OVC006 00/M00 Q0996=

TAF

SN

EFTU 241437Z 2415/2515 36004KT 9999 BKN004 TEMPO 2415/2423 BKN006 BECMG 2422/2424 3000 -SN TEMPO 2500/2507 1400 SN BKN006 BECMG 2513/2515 14010KT 5000 BKN005=

EFHK (17:20 UTC)

Helsinki-Vantaa Airport

METAR

EFHK 241720Z 16004KT 7000 OVC005 02/01 Q0996 NOSIG=

TAF

SNBR

EFHK AMD 241552Z 2415/2515 16007KT 2500 BR BKN004 BECMG 2416/2417 9999 NSW BKN006 BECMG 2421/2423 08010KT 2000 -SN TEMPO 2423/2506 1400 SN OVC003 BECMG 2509/2511 15010KT 4000 BR BECMG 2512/2514 9999 NSW BKN012=

EFMA (17:20 UTC)

Mariehamn Airport

METAR

EFMA 241720Z AUTO 02004KT 340V040 9999 OVC010 01/M01 Q0997=

TAF

EFMA 241437Z 2415/2424 35006KT 9999 OVC006 PROB30 TEMPO 2418/2424 BKN010=

EKSB (17:20 UTC)

Sønderborg Airport

METAR

BR

EKSB 241720Z AUTO 23004KT 4100NDV BR FEW030/// BKN088/// 02/01 Q0996=

TAF

BR

EKSB 241227Z 2413/2418 VRB02KT 6000 BKN020 TEMPO 2413/2418 2500 BR BKN012=

EKSP (17:20 UTC)

Vojens Airport

METAR

FG

EKSP 241720Z 22004KT 0400 R10/P2000N R28/1300D FG VV001 01/00 Q0996=

TAF

BR

EKSP 241706Z 2418/2518 24003KT 0100 FZFG VV001 TEMPO 2418/2510 3000 BCFG BR SCT001 BECMG 2510/2512 8000 NSW SCT020 TEMPO 2512/2518 4000 BR=

EKEB (17:20 UTC)

Esbjerg Airport

METAR

EKEB 241720Z AUTO 25001KT 9999 OVC120/// 01/00 Q0996=

TAF

BR

EKEB 241725Z 2418/2423 25003KT 9000 SCT030 TEMPO 2421/2423 2000 BR BKN004=

EKYT (17:26 UTC)

Aalborg Airport

METAR

FG

EKYT 241726Z AUTO 24002KT 0800 R08L/1200D R26R/P1500U FG VV001 01/01 Q0996=

TAF

SHRASNFGTCU

EKYT 241706Z 2418/2518 VRB03KT 0100 FG FZFG VV001 TEMPO 2418/2508 3000 -SHRASN BR SCT001 SCT020TCU BECMG 2508/2510 8000 NSW SCT020 BECMG 2514/2516 0100 FG FZFG VV001=

EKKA (17:20 UTC)

Karup Airport

METAR

EKKA 241720Z AUTO 19003KT 9999 SCT020/// BKN072/// BKN120/// 01/00 Q0996=

TAF

BR

EKKA 241706Z 2418/2518 25003KT 8000 SCT006 SCT020 BKN060 BECMG 2418/2420 0100 FZFG VV001 TEMPO 2420/2510 3000 MIFG BR SCT001 BECMG 2510/2512 5000 BR SCT003 TEMPO 2512/2516 8000 NSW BECMG 2516/2518 0100 FZFG VV001=

EKBI (17:20 UTC)

Billund Airport

METAR

FG

EKBI 241720Z AUTO 26001KT 9000 BCFG BKN120/// M00/M00 Q0996=

TAF

BR

EKBI 241723Z 2418/2518 24004KT 9000 SCT040 TEMPO 2418/2421 0800 BCFG BECMG 2421/2423 0100 FZFG VV001 TEMPO 2423/2510 5000 BR FEW001 BECMG 2510/2512 9000 NSW SCT020 TEMPO 2516/2518 3000 BR=

EKVD (17:20 UTC)

Kolding Airport

METAR

EKVD 241720Z AUTO 20003KT //// ///////// 01/01 Q0996=

TAF

BR

EKVD 241130Z 2412/2416 17005KT 7000 BKN020 TEMPO 2412/2416 2000 BR=

EKCH (17:20 UTC)

Copenhagen Airport, Kastrup

METAR

EKCH 241720Z 16002KT 5000 FEW006 BKN057 02/01 Q0997 TEMPO 4000 BR BKN008=

TAF

RABR

EKCH 241712Z 2418/2518 22005KT 9999 BKN040 TEMPO 2418/2421 4000 BR -RASN BKN008 TEMPO 2421/2509 3000 BR -SNRA BKN003 BECMG 2506/2509 27010KT TEMPO 2509/2518 BKN008=

EKRK (17:20 UTC)

Copenhagen Airport, Roskilde

METAR

BR

EKRK 241720Z AUTO 00000KT 4400 BR FEW033/// OVC059/// 02/01 Q0996=

TAF

BR

EKRK 241725Z 2418/2503 20005KT 6000 BKN040 TEMPO 2418/2422 4000 BR TEMPO 2422/2503 1200 BR BKN006=

ENRY (17:20 UTC)

Moss flygplats, Rygge

METAR

FG

ENRY 241720Z AUTO 34003KT 0800NDV R12/P2000N R30/P2000N FZFG OVC001/// M00/M00 Q0997=

TAF

BR

ENRY AMD 241405Z 2414/2512 36005KT 6000 -SG OVC010 TEMPO 2414/2418 0500 SG BR VV001 TEMPO 2418/2506 2000 -SG OVC004 BECMG 2506/2508 CAVOK=

ENGM (17:20 UTC)

Oslo flygplats, Gardermoen

METAR

SN

ENGM 241720Z 02005KT 7000 -SN OVC012 M03/M04 Q0996 TEMPO 4000 -SN BKN008=

TAF

ENGM 241100Z 2412/2512 36005KT 9999 OVC005 TEMPO 2412/2422 OVC015 BECMG 2422/2424 CAVOK=

ENTO (17:20 UTC)

Sandefjord flygplats, Torp

METAR

ENTO 241720Z 36004KT 9999 OVC005 M02/M03 Q0997 TEMPO BKN004 TEMPO BKN004=

TAF

SNBR

ENTO AMD 241215Z 2412/2512 36005KT 9999 OVC004 TEMPO 2412/2506 2000 -SN BR OVC010 BECMG 2506/2508 CAVOK=

ENCN (17:20 UTC)

Kristiansand flygplats, Kjevik

METAR

ENCN 241720Z 00000KT 9999 BKN021 00/M01 Q0997=

TAF

ENCN 241700Z 2418/2423 03005KT 9999 BKN020 TEMPO 2418/2423 BKN012=

ENZV (17:20 UTC)

Stavanger-Sola flygplats

METAR

CB

ENZV 241720Z 14007KT 9999 FEW020CB M01/M04 Q0997 NOSIG=

TAF

SHSNCB

ENZV 241100Z 2412/2512 14007KT 9999 FEW020CB SCT030 PROB30 TEMPO 2412/2415 3000 -SHSN VV014 BECMG 2416/2418 CAVOK=

ENHD (17:20 UTC)

Haugesund flygplats, Karmøy

METAR

CB

ENHD 241720Z 12008KT 9999 FEW018CB SCT045 M01/M04 Q0997=

TAF

CB

ENHD 241700Z 2418/2422 12008KT 9999 FEW020CB SCT040=

ENBR (17:20 UTC)

Bergen flygplats, Flesland

METAR

TCU

ENBR 241720Z 10004KT 080V140 9999 FEW015TCU FEW030 BKN045 01/M01 Q0996 NOSIG RMK WIND 1200FT 12012KT=

TAF

SHSNCB

ENBR 241100Z 2412/2512 13008KT 9999 FEW020CB SCT030 PROB30 TEMPO 2412/2414 3000 -SHSN VV014 BECMG 2418/2421 CAVOK=

ENBL (17:20 UTC)

Førde flygplats, Bringeland

METAR

ENBL 241720Z 00000KT 9999 BKN040 M03/M05 Q0995=

TAF

Ingen TAF hittades.

ENOV (17:20 UTC)

Ørsta-Volda flygplats, Hovden

METAR

ENOV 241720Z VRB01KT 9999 FEW060 M06/M08 Q0996 RMK WIND 2175FT 13014KT=

TAF

Ingen TAF hittades.

ENML (17:20 UTC)

Molde flygplats, Årø

METAR

ENML 241720Z 02009KT CAVOK M02/M06 Q0996=

TAF

ENML 241400Z 2415/2420 03007KT CAVOK=

ENKB (17:20 UTC)

Kristiansund flygplats, Kvernberget

METAR

ENKB 241720Z VRB02KT CAVOK M00/M06 Q0995 RMK WIND 745FT 17009KT=

TAF

ENKB 241700Z 2418/2421 VRB05KT CAVOK=

ENRO (17:20 UTC)

Røros flygplats

METAR

ENRO 241720Z 11005KT 9999 BKN006 M08/M10 Q0994=

TAF

ENRO 241400Z 2415/2420 VRB03KT 9999 BKN005 TEMPO 2415/2420 SCT005 BKN040=

ENVA (17:20 UTC)

Trondheim flygplats, Værnes

METAR

FG

ENVA 241720Z 15007KT 9999 BCFG FEW047 M01/M02 Q0996 RMK WIND 670FT 16012KT=

TAF

ENVA AMD 241405Z 2414/2512 09005KT CAVOK=

ENOL (17:20 UTC)

Ørland flygplats

METAR

ENOL 241720Z 18007KT 9999 FEW040 01/M03 Q0995 NOSIG=

TAF

ENOL 241100Z 2412/2512 23010KT 9999 FEW010 BKN030 BECMG 2419/2422 15008KT=

ENRM (17:20 UTC)

Rørvik flygplats, Ryum

METAR

SN

ENRM 241720Z 11004KT 080V150 6000 -SNDZ FEW004 BKN006 M00/M00 Q0994=

TAF

Ingen TAF hittades.

ENBN (17:20 UTC)

Brønnøysund flygplats, Brønnøy

METAR

SN

ENBN 241720Z 04005KT 360V080 7000 -SN SCT020 BKN033 M02/M03 Q0994=

TAF

FZDZ

ENBN 241700Z 2418/2503 VRB05KT 9999 FEW015 BKN030 TEMPO 2418/2503 3000 -SN BKN012 TEMPO 2418/2503 -FZDZ=

ENRA (17:20 UTC)

Mo i Rana flygplats, Røssvoll

METAR

ENRA 241720Z 06007KT 9999 FEW036 BKN059 M08/M16 Q0997=

TAF

ENRA 241700Z 2418/2422 06008KT 9999 FEW020 BKN035=

ENBO (17:20 UTC)

Bodö flygplats

METAR

SN

ENBO 241720Z 09018KT 9999 5000E -SN FEW008 SCT025 BKN040 M07/M11 Q0995 NOSIG=

TAF

SN

ENBO AMD 241555Z 2416/2512 09020KT 9999 FEW010 BKN020 TEMPO 2416/2419 4000 -SN VV012=

ENSH (17:20 UTC)

Svolvær flygplats, Helle

METAR

SHRA

ENSH 241720Z 05011KT 9999 VCSH SCT019 M06/M09 Q0995 RMK WIND 150FT 06012KT=

TAF

ENSH 241700Z 2418/2422 04012KT 9999 FEW025 SCT040=

ENAN (17:20 UTC)

Andøya flygplats

METAR

ENAN 241720Z AUTO 17007KT 9999 SCT019/// M07/M10 Q0995=

TAF

ENAN 241100Z 2412/2512 16008KT 9999 FEW020 SCT050=

ENEV (17:20 UTC)

Harstad-Narvik flygplats

METAR

ENEV 241720Z 14005KT 080V170 9999 FEW047 M10/M16 Q0996 RMK WIND 1400FT 13007KT=

TAF

ENEV 241700Z 2418/2422 14005KT 9999 FEW045=

ENDU (17:20 UTC)

Bardufoss flygplats

METAR

ENDU 241720Z 00000KT 9999 FEW035 M20/M22 Q0997 RMK WIND 1100FT 17007KT WIND 2200FT 12016KT=

TAF

ENDU 241100Z 2412/2512 VRB03KT 9999 FEW040=

ENTC (17:20 UTC)

Tromsø flygplats

METAR

ENTC 241720Z 19008KT CAVOK M09/M14 Q0996 NOSIG RMK WIND 2600FT 12008KT=

TAF

ENTC 241100Z 2412/2512 22008KT 9999 SCT060=

ENAT (17:20 UTC)

Alta flygplats

METAR

ENAT 241720Z 19003KT 160V220 9999 OVC045 M15/M19 Q1002 RMK WIND 700FT 17014KT=

TAF

ENAT 241700Z 2418/2421 17005KT 9999 BKN040=

ENNA (17:20 UTC)

Lakselv flygplats

METAR

ENNA 241720Z 12004KT 9999 FEW030 SCT060 BKN085 M14/M17 Q1002 RMK WIND 1800FT 17014KT=

TAF

SN

ENNA 241100Z 2412/2512 18008KT 9999 FEW015 BKN030 TEMPO 2422/2512 4000 -SN BKN012=

ENHF (17:20 UTC)

Hammerfest flygplats

METAR

ENHF 241720Z 08005KT 9999 FEW048 SCT061 M10/M14 Q1000 RMK WIND 1254FT 13018KT=

TAF

ENHF 241700Z 2418/2503 11012KT 9999 FEW040 SCT055=

ENKR (17:20 UTC)

Kirkenes Airport, Høybuktmoen

METAR

ENKR 241720Z 15003KT 9999 SCT043 BKN078 M15/M18 Q1002 RMK WIND 731FT VRB03KT=

TAF

SN

ENKR 241700Z 2418/2503 16008KT 9999 -SN BKN030 TEMPO 2418/2423 4000 -SN BKN014=

ENLK (16:50 UTC)

Leknes Airport

METAR

SHRA

ENLK 241650Z 08007KT 9999 VCSH BKN022 M04/M08 Q0994=

TAF

Ingen TAF hittades.

ENST (17:20 UTC)

Sandnessjøen Airport, Stokka

METAR

ENST 241720Z 07008KT 9999 FEW025 BKN045 M03/M08 Q0994 RMK WIND 300FT 06009KT=

TAF

Ingen TAF hittades.

ENSB (17:20 UTC)

Svalbard Airport, Longyear

METAR

ENSB 241720Z 12011KT 9999 FEW018 SCT040 BKN075 M10/M15 Q1017 RMK WIND 1400FT 13007KT=

TAF

SN

ENSB 241100Z 2412/2512 13008KT 9999 FEW012 BKN025 BECMG 2421/2423 13018KT PROB40 TEMPO 2412/2424 4000 -SN VV014=

ENSK (17:20 UTC)

Stokmarknes Airport, Skagen

METAR

ENSK 241720Z 14010KT 9999 FEW033 M05/M09 Q0995=

TAF

Ingen TAF hittades.

ENNM (17:20 UTC)

Namsos Airport, Høknesøra

METAR

SN

ENNM 241720Z 05018KT 7000 -SNDZ SCT010 BKN015 M04/M06 Q0995=

TAF

Ingen TAF hittades.